Time;durP1;ratioP1;P1;durP2;ratioP2;P2;SDS_P1;SDS_P2;PMS_P1;PMS_P2;Temp;Humidity;BMP_temperature;BMP_pressure;BME280_temperature;BME280_humidity;BME280_pressure;Samples;Min_cycle;Max_cycle;Signal;HPM_P1;HPM_P2
2023/10/20 00:00:34;;;;;;;25.40;8.95;;;17.90;99.70;;;;;;5068001;28;20028;-52
2023/10/20 00:03:00;;;;;;;30.25;10.18;;;18.00;99.70;;;;;;5067046;28;20021;-52
2023/10/20 00:05:25;;;;;;;26.08;9.60;;;17.90;99.60;;;;;;5049824;28;20042;-53
2023/10/20 00:07:53;;;;;;;36.45;10.18;;;17.90;99.60;;;;;;5066668;28;20033;-52
2023/10/20 00:10:18;;;;;;;28.27;9.55;;;17.90;99.60;;;;;;5050307;28;20025;-52
2023/10/20 00:12:44;;;;;;;22.77;8.90;;;17.90;99.60;;;;;;5066671;28;20060;-52
2023/10/20 00:15:13;;;;;;;29.90;9.10;;;17.90;99.60;;;;;;5066857;28;20501;-53
2023/10/20 00:17:42;;;;;;;25.50;10.00;;;17.90;99.60;;;;;;5069056;28;20032;-52
2023/10/20 00:20:11;;;;;;;27.60;9.63;;;17.90;99.60;;;;;;5052491;28;20043;-52
2023/10/20 00:22:37;;;;;;;29.27;9.13;;;17.80;99.60;;;;;;5049695;28;20033;-52
2023/10/20 00:25:03;;;;;;;25.85;9.95;;;17.80;99.60;;;;;;5066435;28;20032;-53
2023/10/20 00:27:28;;;;;;;26.50;9.15;;;17.80;99.60;;;;;;5067543;28;20032;-52
2023/10/20 00:29:54;;;;;;;22.27;8.75;;;17.80;99.70;;;;;;5067624;28;20025;-52
2023/10/20 00:32:20;;;;;;;24.15;8.50;;;17.80;99.70;;;;;;5066255;28;20032;-52
2023/10/20 00:34:45;;;;;;;24.17;8.68;;;17.80;99.70;;;;;;5058004;28;20033;-53
2023/10/20 00:37:11;;;;;;;26.92;8.35;;;17.80;99.60;;;;;;5066191;28;20397;-53
2023/10/20 00:39:37;;;;;;;23.83;7.93;;;17.80;99.60;;;;;;5067310;28;20033;-52
2023/10/20 00:42:02;;;;;;;22.88;8.52;;;17.80;99.60;;;;;;5032624;28;20037;-52
2023/10/20 00:44:28;;;;;;;15.90;7.25;;;17.70;99.60;;;;;;5032666;28;20060;-53
2023/10/20 00:46:53;;;;;;;27.90;9.40;;;17.80;99.70;;;;;;5066999;28;20055;-52
2023/10/20 00:49:19;;;;;;;21.77;8.80;;;17.80;99.60;;;;;;5065987;28;20045;-52
2023/10/20 00:51:45;;;;;;;16.70;7.30;;;17.70;99.60;;;;;;5065641;28;20039;-53
2023/10/20 00:54:13;;;;;;;25.38;8.80;;;17.70;99.60;;;;;;5066049;28;20029;-52
2023/10/20 00:56:40;;;;;;;21.92;8.50;;;17.80;99.50;;;;;;5049415;28;20029;-52
2023/10/20 00:59:05;;;;;;;20.88;8.45;;;17.80;99.50;;;;;;5049138;28;20029;-52
2023/10/20 01:01:31;;;;;;;26.30;8.50;;;17.80;99.50;;;;;;5030394;28;20082;-53
2023/10/20 01:03:57;;;;;;;16.65;7.93;;;17.70;99.50;;;;;;5048681;28;20071;-52
2023/10/20 01:06:22;;;;;;;19.25;8.82;;;17.70;99.60;;;;;;5065465;28;20467;-52
2023/10/20 01:08:56;;;;;;;23.30;8.23;;;17.70;99.60;;;;;;5066761;28;20043;-52
2023/10/20 01:11:22;;;;;;;18.05;8.20;;;17.70;99.70;;;;;;5066584;28;20045;-53
2023/10/20 01:13:48;;;;;;;20.25;7.90;;;17.70;99.70;;;;;;5066668;28;20074;-53
2023/10/20 01:16:13;;;;;;;18.90;7.68;;;17.70;99.80;;;;;;5065231;28;20029;-52
2023/10/20 01:18:39;;;;;;;17.83;8.07;;;17.50;99.70;;;;;;5066581;28;20354;-52
2023/10/20 01:21:04;;;;;;;19.38;7.30;;;17.70;99.80;;;;;;5065016;28;20060;-52
2023/10/20 01:23:30;;;;;;;19.80;7.78;;;17.70;99.80;;;;;;5065264;28;20098;-53
2023/10/20 01:25:56;;;;;;;17.67;8.10;;;17.70;99.80;;;;;;5065297;28;20051;-52
2023/10/20 01:28:22;;;;;;;18.73;8.05;;;17.70;99.70;;;;;;5066268;28;20104;-53
2023/10/20 01:30:47;;;;;;;14.98;7.68;;;17.60;99.80;;;;;;5065164;28;20025;-52
2023/10/20 01:33:13;;;;;;;18.45;8.65;;;17.60;99.80;;;;;;5065317;28;20358;-52
2023/10/20 01:35:39;;;;;;;14.23;7.55;;;17.60;99.80;;;;;;5065083;28;20033;-52
2023/10/20 01:38:05;;;;;;;17.30;7.80;;;17.60;99.70;;;;;;5064853;28;20029;-53
2023/10/20 01:40:30;;;;;;;17.35;8.52;;;17.60;99.80;;;;;;5064805;28;20025;-52
2023/10/20 01:42:56;;;;;;;13.77;8.57;;;17.60;99.70;;;;;;5064707;28;20029;-52
2023/10/20 01:45:21;;;;;;;15.30;8.82;;;17.60;99.60;;;;;;5048500;28;20112;-53
2023/10/20 01:47:47;;;;;;;18.45;8.82;;;17.60;99.60;;;;;;5065352;28;20477;-52
2023/10/20 01:50:12;;;;;;;14.65;8.32;;;17.60;99.60;;;;;;5065026;28;20471;-52
2023/10/20 01:52:38;;;;;;;16.25;8.68;;;17.60;99.50;;;;;;5066148;28;20025;-52
2023/10/20 01:55:04;;;;;;;18.17;8.43;;;17.60;99.50;;;;;;5048282;28;20025;-52
2023/10/20 01:57:30;;;;;;;17.67;8.30;;;17.60;99.60;;;;;;5064883;28;20028;-52
2023/10/20 01:59:56;;;;;;;12.57;7.53;;;17.60;99.70;;;;;;5066010;28;20087;-53
2023/10/20 02:02:21;;;;;;;14.93;8.02;;;17.50;99.70;;;;;;5064841;28;20033;-52
2023/10/20 02:04:47;;;;;;;17.08;7.53;;;17.60;99.80;;;;;;5050495;28;20123;-52
2023/10/20 02:07:12;;;;;;;16.27;7.40;;;17.60;99.80;;;;;;5068815;28;20025;-53
2023/10/20 02:09:38;;;;;;;10.98;7.57;;;17.50;99.80;;;;;;5068879;28;20029;-52
2023/10/20 02:12:04;;;;;;;13.07;7.07;;;17.50;99.80;;;;;;5070244;28;20036;-52
2023/10/20 02:14:30;;;;;;;12.15;6.90;;;17.50;99.90;;;;;;5070169;28;20040;-52
2023/10/20 02:16:56;;;;;;;14.07;7.30;;;17.50;99.80;;;;;;5070038;28;20032;-52
2023/10/20 02:19:22;;;;;;;16.98;6.85;;;17.50;99.80;;;;;;5068630;28;20045;-52
2023/10/20 02:21:48;;;;;;;14.32;7.53;;;17.50;99.80;;;;;;5068391;28;20397;-52
2023/10/20 02:24:13;;;;;;;13.98;7.40;;;17.50;99.80;;;;;;5068159;28;20029;-52
2023/10/20 02:26:39;;;;;;;11.52;7.13;;;17.50;99.80;;;;;;5068678;28;20040;-52
2023/10/20 02:29:04;;;;;;;15.88;7.00;;;17.50;99.80;;;;;;5068588;28;20017;-52
2023/10/20 02:31:30;;;;;;;13.57;6.90;;;17.50;99.80;;;;;;5051713;28;20055;-52
2023/10/20 02:33:55;;;;;;;14.18;7.22;;;17.40;99.80;;;;;;5069657;28;20120;-53
2023/10/20 02:36:21;;;;;;;12.48;7.32;;;17.50;99.80;;;;;;5068245;28;20037;-53
2023/10/20 02:38:49;;;;;;;13.73;6.90;;;17.50;99.80;;;;;;5068539;28;20037;-52
2023/10/20 02:41:14;;;;;;;15.68;7.15;;;17.50;99.70;;;;;;5051541;28;20036;-52
2023/10/20 02:43:43;;;;;;;14.45;8.07;;;17.50;99.70;;;;;;5068281;28;20049;-52
2023/10/20 02:46:09;;;;;;;12.80;8.18;;;17.40;99.50;;;;;;5051302;28;20029;-52
2023/10/20 02:48:35;;;;;;;13.77;8.43;;;17.50;99.50;;;;;;5051626;28;20028;-52
2023/10/20 02:51:14;;;;;;;13.25;8.55;;;17.50;99.50;;;;;;5068074;28;20029;-53
2023/10/20 02:53:39;;;;;;;12.05;8.23;;;17.50;99.50;;;;;;5051481;28;20039;-52
2023/10/20 02:56:14;;;;;;;12.23;7.97;;;17.40;99.40;;;;;;5067991;28;20447;-52
2023/10/20 02:58:43;;;;;;;16.35;8.15;;;17.40;99.40;;;;;;5068039;28;20033;-52
2023/10/20 03:01:09;;;;;;;10.00;7.88;;;17.40;99.40;;;;;;5069186;28;20044;-52
2023/10/20 03:03:38;;;;;;;14.68;8.10;;;17.40;99.50;;;;;;5067935;28;20044;-52
2023/10/20 03:06:04;;;;;;;14.32;8.07;;;17.40;99.50;;;;;;5050927;28;20045;-52
2023/10/20 03:08:30;;;;;;;11.93;7.75;;;17.40;99.60;;;;;;5068965;28;20025;-53
2023/10/20 03:10:56;;;;;;;12.40;7.60;;;17.40;99.70;;;;;;5067683;28;20493;-52
2023/10/20 03:13:23;;;;;;;10.75;7.30;;;17.40;99.70;;;;;;5051130;28;20024;-52
2023/10/20 03:15:50;;;;;;;12.50;8.00;;;17.40;99.60;;;;;;5050806;28;20108;-52
2023/10/20 03:18:16;;;;;;;16.20;7.95;;;17.40;99.60;;;;;;5050618;28;20025;-52
2023/10/20 03:20:43;;;;;;;15.30;8.25;;;17.40;99.60;;;;;;5067473;28;20037;-52
2023/10/20 03:23:09;;;;;;;10.95;7.22;;;17.40;99.90;;;;;;5068803;28;20040;-52
2023/10/20 03:25:36;;;;;;;14.63;7.43;;;17.40;99.90;;;;;;5067198;28;20033;-52
2023/10/20 03:28:03;;;;;;;10.73;7.68;;;17.40;99.90;;;;;;5050622;28;20116;-52
2023/10/20 03:30:29;;;;;;;14.27;7.65;;;17.40;99.60;;;;;;5067290;28;20081;-53
2023/10/20 03:32:55;;;;;;;11.10;6.88;;;17.30;99.70;;;;;;5067180;28;20504;-52
2023/10/20 03:35:21;;;;;;;10.30;7.53;;;17.30;99.90;;;;;;5067269;28;20029;-53
2023/10/20 03:37:51;;;;;;;8.00;7.15;;;17.30;99.90;;;;;;5067276;28;20033;-52
2023/10/20 03:40:17;;;;;;;9.15;7.45;;;17.30;99.90;;;;;;5067226;28;20029;-52
2023/10/20 03:42:43;;;;;;;10.57;6.45;;;17.30;99.80;;;;;;5067140;28;20603;-52
2023/10/20 03:45:10;;;;;;;9.80;7.50;;;17.30;99.80;;;;;;5050304;28;20037;-52
2023/10/20 03:47:39;;;;;;;9.88;7.78;;;17.30;99.60;;;;;;5066952;28;20025;-52
2023/10/20 03:50:17;;;;;;;10.82;7.70;;;17.30;99.60;;;;;;5068389;28;20039;-52
2023/10/20 03:52:45;;;;;;;12.07;8.38;;;17.30;99.60;;;;;;5068341;28;20027;-52
2023/10/20 03:55:13;;;;;;;10.93;7.20;;;17.30;99.60;;;;;;5067104;28;20033;-52
2023/10/20 03:57:43;;;;;;;12.75;7.60;;;17.30;99.60;;;;;;5066992;28;20108;-52
2023/10/20 04:00:17;;;;;;;9.88;7.25;;;17.20;99.50;;;;;;5050305;28;20037;-52
2023/10/20 04:02:45;;;;;;;10.13;7.10;;;17.20;99.50;;;;;;5066854;28;20051;-53
2023/10/20 04:05:13;;;;;;;11.10;7.28;;;17.30;99.60;;;;;;5066511;28;20100;-53
2023/10/20 04:07:38;;;;;;;8.85;6.72;;;17.20;99.60;;;;;;5066715;28;20085;-52
2023/10/20 04:10:06;;;;;;;9.77;7.05;;;17.20;99.60;;;;;;5050028;28;20449;-52
2023/10/20 04:12:31;;;;;;;10.95;6.97;;;17.20;99.60;;;;;;5068480;28;20024;-51
2023/10/20 04:14:57;;;;;;;15.73;6.75;;;17.20;99.50;;;;;;5067931;28;20029;-53
2023/10/20 04:17:23;;;;;;;14.65;7.20;;;17.20;99.50;;;;;;5067371;28;20075;-52
2023/10/20 04:19:49;;;;;;;9.43;6.10;;;17.20;99.50;;;;;;5049999;28;20041;-52
2023/10/20 04:22:16;;;;;;;12.32;6.97;;;17.20;99.50;;;;;;5066228;28;20112;-52
2023/10/20 04:24:42;;;;;;;12.88;7.15;;;17.20;99.50;;;;;;5050635;28;20033;-52
2023/10/20 04:27:21;;;;;;;13.15;7.68;;;17.20;99.50;;;;;;5065458;28;20050;-53
2023/10/20 04:44:49;;;;;;;34.50;10.10;;;17.20;99.70;;;;;;5067200;28;20047;-52
2023/10/20 04:54:45;;;;;;;62.90;12.63;;;17.10;99.50;;;;;;5051765;28;20036;-52
2023/10/20 04:59:39;;;;;;;54.15;10.57;;;17.10;99.50;;;;;;5066865;28;20033;-52
2023/10/20 05:02:32;;;;;;;113.85;16.88;;;17.10;99.50;;;;;;5066992;28;20039;-52
2023/10/20 05:04:57;;;;;;;91.32;14.98;;;17.10;99.50;;;;;;5067005;28;20033;-53
2023/10/20 05:07:26;;;;;;;67.53;13.13;;;17.10;99.60;;;;;;5048958;28;20088;-52
2023/10/20 05:09:54;;;;;;;92.00;14.90;;;17.10;99.60;;;;;;5049351;28;20044;-52
2023/10/20 05:12:20;;;;;;;74.95;13.73;;;17.10;99.50;;;;;;5049210;28;20021;-52
2023/10/20 05:14:49;;;;;;;74.18;13.75;;;17.00;99.50;;;;;;5048983;28;20055;-52
2023/10/20 05:17:17;;;;;;;61.58;12.75;;;17.10;99.50;;;;;;5048663;28;20029;-52
2023/10/20 05:19:43;;;;;;;70.32;13.18;;;17.00;99.40;;;;;;5049064;28;20053;-52
2023/10/20 05:22:09;;;;;;;96.68;14.88;;;17.10;99.40;;;;;;5066243;28;20436;-52
2023/10/20 05:24:35;;;;;;;80.20;13.60;;;17.00;99.40;;;;;;5066306;28;20439;-52
2023/10/20 05:27:00;;;;;;;77.13;15.00;;;17.00;99.40;;;;;;5048346;28;20025;-52
2023/10/20 05:29:26;;;;;;;65.82;12.88;;;17.00;99.40;;;;;;5066521;28;20025;-52
2023/10/20 05:31:51;;;;;;;75.50;13.90;;;17.00;99.40;;;;;;5065115;28;20021;-52
2023/10/20 05:34:18;;;;;;;72.68;13.70;;;17.00;99.40;;;;;;5031876;28;20393;-52
2023/10/20 05:36:44;;;;;;;76.32;13.85;;;17.00;99.40;;;;;;5066435;28;20085;-52
2023/10/20 05:39:13;;;;;;;70.50;12.88;;;17.00;99.40;;;;;;5065557;28;20055;-52
2023/10/20 05:41:39;;;;;;;65.85;12.98;;;17.00;99.40;;;;;;5032424;28;20447;-52
2023/10/20 05:44:06;;;;;;;53.08;12.38;;;17.00;99.40;;;;;;5048401;28;20032;-52
2023/10/20 05:46:32;;;;;;;49.00;12.00;;;17.00;99.40;;;;;;5048485;28;20028;-52
2023/10/20 05:48:57;;;;;;;57.75;11.40;;;17.00;99.40;;;;;;5066028;28;20040;-52
2023/10/20 05:51:23;;;;;;;68.20;13.38;;;17.00;99.50;;;;;;5048265;28;20044;-53
2023/10/20 05:53:48;;;;;;;60.85;13.40;;;17.00;99.50;;;;;;5048225;28;20036;-52
2023/10/20 05:56:14;;;;;;;65.45;12.25;;;17.00;99.50;;;;;;5048334;28;20033;-52
2023/10/20 05:58:40;;;;;;;53.33;11.77;;;17.00;99.80;;;;;;5048343;28;20465;-52
2023/10/20 06:01:11;;;;;;;46.28;11.23;;;17.00;99.60;;;;;;5048228;28;20043;-52
2023/10/20 06:03:37;;;;;;;55.20;11.63;;;17.00;99.60;;;;;;5048557;28;20029;-52
2023/10/20 06:06:03;;;;;;;48.40;11.15;;;16.90;99.70;;;;;;5048243;28;20035;-53
2023/10/20 06:08:32;;;;;;;55.47;11.88;;;16.90;99.70;;;;;;5064474;28;20030;-52
2023/10/20 06:11:04;;;;;;;60.88;12.05;;;16.90;99.80;;;;;;5064640;28;20021;-52
2023/10/20 06:13:34;;;;;;;41.60;10.10;;;16.90;99.80;;;;;;5048074;28;20334;-52
2023/10/20 06:16:09;;;;;;;52.30;11.63;;;16.90;99.80;;;;;;5048172;28;20028;-52
2023/10/20 06:18:39;;;;;;;54.00;11.48;;;16.90;99.70;;;;;;5048477;28;20025;-52
2023/10/20 06:21:04;;;;;;;47.42;11.60;;;16.90;99.70;;;;;;5065504;28;20033;-52
2023/10/20 06:23:30;;;;;;;45.33;10.63;;;16.90;99.80;;;;;;5048036;28;20032;-52
2023/10/20 06:25:57;;;;;;;47.38;10.98;;;16.90;99.80;;;;;;5057916;28;20408;-52
2023/10/20 06:28:23;;;;;;;38.63;10.48;;;16.90;99.80;;;;;;5067710;28;20055;-52
2023/10/20 06:30:50;;;;;;;34.20;10.18;;;16.90;99.80;;;;;;5067497;28;20025;-52
2023/10/20 06:35:50;;;;;;;31.90;9.35;;;16.90;99.80;;;;;;5077537;28;20029;-52
2023/10/20 06:38:19;;;;;;;36.38;10.18;;;16.90;99.80;;;;;;5056163;28;20033;-53
2023/10/20 06:40:45;;;;;;;56.75;11.35;;;16.90;99.70;;;;;;5065346;28;20032;-52
2023/10/20 06:43:11;;;;;;;47.60;10.15;;;17.00;99.80;;;;;;5083162;28;20054;-52
2023/10/20 06:45:36;;;;;;;37.85;10.05;;;16.90;99.80;;;;;;5065770;28;20032;-52
2023/10/20 06:48:02;;;;;;;29.85;9.30;;;16.90;99.80;;;;;;5066517;28;20024;-53
2023/10/20 06:50:27;;;;;;;30.75;9.27;;;16.80;99.80;;;;;;5062265;28;20094;-53
2023/10/20 06:52:53;;;;;;;25.10;8.35;;;16.90;99.80;;;;;;5055525;28;20036;-51
2023/10/20 06:55:19;;;;;;;27.75;9.30;;;16.90;99.80;;;;;;5073423;28;20028;-52
2023/10/20 06:57:44;;;;;;;33.42;9.18;;;16.80;99.70;;;;;;5056009;28;20054;-52
2023/10/20 07:00:20;;;;;;;28.27;8.70;;;16.90;99.80;;;;;;5061609;28;20053;-52
2023/10/20 07:02:46;;;;;;;32.40;8.48;;;16.90;99.70;;;;;;5092907;28;20032;-52
2023/10/20 07:05:13;;;;;;;39.58;9.15;;;16.90;99.60;;;;;;5059859;28;20543;-52
2023/10/20 07:07:40;;;;;;;28.48;7.90;;;16.80;99.50;;;;;;5068138;28;20112;-52
2023/10/20 07:10:10;;;;;;;31.42;8.57;;;16.90;99.50;;;;;;5075362;28;20051;-57
2023/10/20 07:12:35;;;;;;;23.38;7.03;;;16.80;99.50;;;;;;5067784;28;20473;-57
2023/10/20 07:15:01;;;;;;;35.97;8.13;;;16.90;99.40;;;;;;5084437;28;20033;-57
2023/10/20 07:17:27;;;;;;;24.00;7.80;;;16.90;99.40;;;;;;5077793;28;20085;-57
2023/10/20 07:19:53;;;;;;;23.42;8.02;;;16.90;99.40;;;;;;5073700;28;20047;-57
2023/10/20 07:22:19;;;;;;;23.58;6.82;;;16.90;99.40;;;;;;5081560;28;20040;-57
2023/10/20 07:24:44;;;;;;;38.75;7.75;;;16.90;99.40;;;;;;5069178;28;20078;-52
2023/10/20 07:27:10;;;;;;;44.03;8.70;;;16.90;99.30;;;;;;5078014;28;20093;-52
2023/10/20 07:29:36;;;;;;;56.30;10.10;;;16.90;99.20;;;;;;5105294;28;20031;-52
2023/10/20 07:32:01;;;;;;;36.38;8.70;;;16.90;99.20;;;;;;5082517;28;20021;-52
2023/10/20 07:34:27;;;;;;;31.63;7.82;;;16.90;99.20;;;;;;5072252;28;20035;-51
2023/10/20 07:36:52;;;;;;;39.72;8.25;;;16.90;99.10;;;;;;5085672;28;20033;-52
2023/10/20 07:39:18;;;;;;;41.42;7.55;;;16.90;99.20;;;;;;5088057;28;20037;-52
2023/10/20 07:41:44;;;;;;;26.50;6.85;;;16.90;99.10;;;;;;5082307;28;20448;-52
2023/10/20 07:44:13;;;;;;;34.65;7.68;;;16.90;99.10;;;;;;5073730;28;20101;-52
2023/10/20 07:46:41;;;;;;;47.60;8.48;;;16.80;99.10;;;;;;5087321;28;20028;-52
2023/10/20 07:49:13;;;;;;;43.45;8.13;;;16.90;99.10;;;;;;5097508;28;20055;-53
2023/10/20 07:51:39;;;;;;;48.15;8.90;;;16.90;99.10;;;;;;5079445;28;20032;-52
2023/10/20 07:54:05;;;;;;;41.63;8.63;;;16.90;99.10;;;;;;5091838;28;20028;-52
2023/10/20 07:56:31;;;;;;;52.33;9.70;;;16.90;99.10;;;;;;5080441;28;20057;-52
2023/10/20 07:58:57;;;;;;;37.30;7.60;;;16.90;99.10;;;;;;5078241;28;20033;-53
2023/10/20 08:01:23;;;;;;;39.15;9.32;;;16.90;99.10;;;;;;5057478;28;20021;-53
2023/10/20 08:03:49;;;;;;;51.95;9.95;;;16.90;99.20;;;;;;5099924;28;20032;-53
2023/10/20 08:06:15;;;;;;;51.28;8.45;;;17.00;99.10;;;;;;5055632;28;20055;-53
2023/10/20 08:08:40;;;;;;;41.67;9.52;;;17.00;99.00;;;;;;5069558;28;20507;-53
2023/10/20 08:11:09;;;;;;;45.15;9.32;;;17.00;99.10;;;;;;5068261;28;20027;-53
2023/10/20 08:13:34;;;;;;;48.85;9.88;;;17.00;99.10;;;;;;5068471;28;20132;-52
2023/10/20 08:16:03;;;;;;;64.78;12.70;;;17.00;99.10;;;;;;5074034;28;20040;-53
2023/10/20 08:18:33;;;;;;;56.10;9.35;;;17.00;99.20;;;;;;5064629;28;20037;-53
2023/10/20 08:21:08;;;;;;;88.05;12.68;;;17.00;99.30;;;;;;5063338;28;20024;-53
2023/10/20 08:23:34;;;;;;;;;;;17.00;99.70;;;;;;5070103;28;20036;-53
2023/10/20 08:26:00;;;;;;;;;;;17.00;99.40;;;;;;5068651;28;19935;-53
2023/10/20 08:28:26;;;;;;;65.30;10.40;;;17.00;99.40;;;;;;5080056;28;20492;-53
2023/10/20 08:30:52;;;;;;;59.80;11.35;;;17.00;99.80;;;;;;5055010;28;20036;-53
2023/10/20 08:33:17;;;;;;;60.05;10.93;;;17.00;99.60;;;;;;5074469;28;20043;-54
2023/10/20 08:35:43;;;;;;;71.00;11.55;;;17.00;99.60;;;;;;5056809;28;20093;-57
2023/10/20 08:38:09;;;;;;;64.85;10.85;;;17.00;99.70;;;;;;5070811;28;20028;-58
2023/10/20 08:40:34;;;;;;;77.10;12.85;;;17.00;99.80;;;;;;5086891;28;20035;-58
2023/10/20 08:43:04;;;;;;;77.38;12.68;;;17.10;99.90;;;;;;5080874;28;20088;-57
2023/10/20 08:45:31;;;;;;;112.40;16.65;;;17.10;99.90;;;;;;5052429;28;20024;-58
2023/10/20 08:47:57;;;;;;;110.10;16.83;;;17.10;99.90;;;;;;5056177;28;20039;-58
2023/10/20 08:50:22;;;;;;;123.32;18.00;;;17.10;99.90;;;;;;5057505;28;20013;-58
2023/10/20 08:52:48;;;;;;;66.47;12.98;;;17.20;99.90;;;;;;5056632;28;20044;-58
2023/10/20 08:55:14;;;;;;;76.70;12.20;;;17.20;99.90;;;;;;5062985;28;20057;-58
2023/10/20 08:57:39;;;;;;;83.78;13.57;;;17.20;99.90;;;;;;5073593;28;20028;-58
2023/10/20 09:00:07;;;;;;;84.82;14.27;;;17.20;99.90;;;;;;5067248;28;20164;-57
2023/10/20 09:02:37;;;;;;;70.95;13.55;;;17.20;99.90;;;;;;5077632;28;20032;-57
2023/10/20 09:05:03;;;;;;;90.03;14.43;;;17.20;99.90;;;;;;5055636;28;20044;-58
2023/10/20 09:07:31;;;;;;;108.07;16.33;;;17.20;99.90;;;;;;5082028;28;20035;-57
2023/10/20 09:09:56;;;;;;;93.00;15.00;;;17.20;99.90;;;;;;5055052;28;20024;-58
2023/10/20 09:12:22;;;;;;;92.20;16.23;;;17.20;99.90;;;;;;5082198;28;20040;-58
2023/10/20 09:14:48;;;;;;;99.75;14.25;;;17.20;99.90;;;;;;5055220;28;20039;-57
2023/10/20 09:17:22;;;;;;;79.43;13.73;;;17.20;99.90;;;;;;5075085;28;20088;-57
2023/10/20 09:19:47;;;;;;;86.68;14.45;;;17.20;99.90;;;;;;5036695;28;20032;-58
2023/10/20 09:22:13;;;;;;;94.72;16.23;;;17.30;99.90;;;;;;5061008;28;20027;-58
2023/10/20 09:24:40;;;;;;;108.10;16.55;;;17.20;99.90;;;;;;5064402;28;20033;-57
2023/10/20 09:27:07;;;;;;;115.80;16.42;;;17.30;99.90;;;;;;5059204;28;20041;-54
2023/10/20 09:29:32;;;;;;;121.07;18.63;;;17.30;99.90;;;;;;5055963;28;20059;-57
2023/10/20 09:31:59;;;;;;;109.15;18.05;;;17.30;99.90;;;;;;5055499;28;20548;-58
2023/10/20 09:34:24;;;;;;;150.20;19.90;;;17.30;99.90;;;;;;5050797;28;20036;-58
2023/10/20 09:36:50;;;;;;;118.88;17.92;;;17.30;99.90;;;;;;5057915;28;20021;-58
2023/10/20 09:39:27;;;;;;;95.80;15.07;;;17.40;99.90;;;;;;5063258;28;20024;-58
2023/10/20 09:41:52;;;;;;;95.55;15.30;;;17.40;99.90;;;;;;5050954;28;20028;-58
2023/10/20 09:44:22;;;;;;;71.53;12.32;;;17.40;99.90;;;;;;5051028;28;20036;-57
2023/10/20 09:47:13;;;;;;;121.78;17.65;;;17.40;99.90;;;;;;5068276;28;20092;-58
2023/10/20 09:49:39;;;;;;;123.63;18.20;;;17.40;99.90;;;;;;5041095;28;20100;-58
2023/10/20 09:52:05;;;;;;;91.88;14.20;;;17.40;99.90;;;;;;5063486;28;20460;-58
2023/10/20 09:54:31;;;;;;;89.53;14.55;;;17.40;99.90;;;;;;5061808;28;20032;-58
2023/10/20 09:56:57;;;;;;;58.35;10.63;;;17.40;99.90;;;;;;5065380;28;20096;-58
2023/10/20 09:59:24;;;;;;;45.35;9.77;;;17.40;99.90;;;;;;5058941;28;20099;-57
2023/10/20 10:01:51;;;;;;;57.53;10.70;;;17.50;99.90;;;;;;5044438;28;20031;-58
2023/10/20 10:04:29;;;;;;;82.25;13.60;;;17.50;99.90;;;;;;5045674;28;20056;-58
2023/10/20 10:06:57;;;;;;;55.42;8.63;;;17.40;99.90;;;;;;5060001;28;20049;-58
2023/10/20 10:09:33;;;;;;;40.03;7.50;;;17.50;99.90;;;;;;5073165;28;20117;-61
2023/10/20 10:11:59;;;;;;;73.45;10.63;;;17.40;99.90;;;;;;5073236;28;20037;-58
2023/10/20 10:14:25;;;;;;;57.50;9.27;;;17.40;99.90;;;;;;5047115;28;20063;-59
2023/10/20 10:16:54;;;;;;;75.22;11.63;;;17.40;99.90;;;;;;5044870;28;20112;-58
2023/10/20 10:19:23;;;;;;;59.78;9.48;;;17.40;99.90;;;;;;5075280;28;20029;-58
2023/10/20 10:21:50;;;;;;;61.78;9.05;;;17.40;99.90;;;;;;5061836;28;20097;-58
2023/10/20 10:24:22;;;;;;;55.10;8.02;;;17.50;99.90;;;;;;5051523;28;20021;-58
2023/10/20 10:26:59;;;;;;;49.90;8.52;;;17.40;99.90;;;;;;5044413;28;20484;-58
2023/10/20 10:29:53;;;;;;;53.63;8.73;;;17.40;99.90;;;;;;5058194;28;20032;-58
2023/10/20 10:32:22;;;;;;;59.38;9.32;;;17.40;99.90;;;;;;5078518;28;20059;-58
2023/10/20 10:34:49;;;;;;;62.50;9.18;;;17.40;99.90;;;;;;5040663;28;20063;-59
2023/10/20 10:37:18;;;;;;;62.70;9.80;;;17.40;99.90;;;;;;5064855;28;20178;-58
2023/10/20 10:39:44;;;;;;;56.13;8.88;;;17.40;99.90;;;;;;5058558;28;20044;-59
2023/10/20 10:42:11;;;;;;;55.22;9.13;;;17.40;99.90;;;;;;5063898;28;20021;-55
2023/10/20 10:44:37;;;;;;;59.35;8.73;;;17.40;99.90;;;;;;5058467;28;20029;-54
2023/10/20 10:47:03;;;;;;;58.20;9.48;;;17.30;99.90;;;;;;5063896;28;20039;-54
2023/10/20 10:49:32;;;;;;;59.80;9.32;;;17.40;99.90;;;;;;5068822;28;20036;-55
2023/10/20 10:51:58;;;;;;;62.65;9.48;;;17.30;99.90;;;;;;5059936;28;20079;-54
2023/10/20 10:54:24;;;;;;;79.00;9.23;;;17.40;99.90;;;;;;5046830;28;20021;-53
2023/10/20 10:56:49;;;;;;;64.20;8.27;;;17.40;99.90;;;;;;5060742;28;20028;-54
2023/10/20 10:59:15;;;;;;;58.30;7.93;;;17.40;99.90;;;;;;5056590;28;20350;-54
2023/10/20 11:01:41;;;;;;;53.30;8.02;;;17.40;99.90;;;;;;5046863;28;20444;-54
2023/10/20 11:04:10;;;;;;;37.03;7.55;;;17.30;99.90;;;;;;5049092;28;20434;-54
2023/10/20 11:06:38;;;;;;;42.42;6.10;;;17.40;99.90;;;;;;5060154;28;20025;-54
2023/10/20 11:09:10;;;;;;;46.28;6.32;;;17.40;99.90;;;;;;5061405;28;20024;-54
2023/10/20 11:11:45;;;;;;;39.20;7.55;;;17.50;99.90;;;;;;5070923;28;20100;-54
2023/10/20 11:14:11;;;;;;;50.58;8.25;;;17.40;99.90;;;;;;5056826;28;20033;-59
2023/10/20 11:16:37;;;;;;;42.40;5.35;;;17.40;99.90;;;;;;5068292;28;20052;-54
2023/10/20 11:19:02;;;;;;;49.95;7.10;;;17.40;99.90;;;;;;5082625;28;20028;-54
2023/10/20 11:21:28;;;;;;;40.42;5.95;;;17.30;99.90;;;;;;5062726;28;20032;-55
2023/10/20 11:23:56;;;;;;;46.45;6.40;;;17.40;99.90;;;;;;5062938;28;20059;-54
2023/10/20 11:26:24;;;;;;;32.58;5.53;;;17.40;99.90;;;;;;5069759;28;20560;-54
2023/10/20 11:28:50;;;;;;;32.10;5.97;;;17.30;99.90;;;;;;5064859;28;20029;-54
2023/10/20 11:31:16;;;;;;;28.85;5.10;;;17.30;99.90;;;;;;5088363;28;20070;-54
2023/10/20 11:33:41;;;;;;;51.75;7.05;;;17.30;99.90;;;;;;5075847;28;20416;-54
2023/10/20 11:36:07;;;;;;;60.00;5.47;;;17.30;99.90;;;;;;5066752;28;20057;-54
2023/10/20 11:38:33;;;;;;;29.48;4.68;;;17.30;99.90;;;;;;5068352;28;20064;-54
2023/10/20 11:41:00;;;;;;;46.03;5.68;;;17.30;99.90;;;;;;5075374;28;20451;-54
2023/10/20 11:43:25;;;;;;;30.65;4.90;;;17.30;99.90;;;;;;5056958;28;20468;-54
2023/10/20 11:45:51;;;;;;;45.53;6.15;;;17.30;99.90;;;;;;5070106;28;20039;-54
2023/10/20 11:48:17;;;;;;;42.55;5.25;;;17.30;99.90;;;;;;5060975;28;20024;-54
2023/10/20 11:50:43;;;;;;;34.90;5.45;;;17.30;99.90;;;;;;5085028;28;20017;-54
2023/10/20 11:53:08;;;;;;;28.88;4.70;;;17.30;99.90;;;;;;5065003;28;20036;-54
2023/10/20 11:55:34;;;;;;;37.97;5.35;;;17.30;99.90;;;;;;5085389;28;20056;-54
2023/10/20 11:58:03;;;;;;;39.17;5.80;;;17.30;99.90;;;;;;5036304;28;20123;-54
2023/10/20 12:00:29;;;;;;;36.28;5.55;;;17.30;99.90;;;;;;5068652;28;20046;-54
2023/10/20 12:02:54;;;;;;;41.15;6.10;;;17.30;99.90;;;;;;5087405;28;20048;-54
2023/10/20 12:05:20;;;;;;;38.88;5.68;;;17.30;99.90;;;;;;5068311;28;20034;-54
2023/10/20 12:07:45;;;;;;;41.95;5.82;;;17.30;99.90;;;;;;5071364;28;20028;-54
2023/10/20 12:10:12;;;;;;;37.38;5.45;;;17.30;99.90;;;;;;5074831;28;20024;-54
2023/10/20 12:12:38;;;;;;;41.28;5.65;;;17.30;99.90;;;;;;5080706;28;20020;-54
2023/10/20 12:15:05;;;;;;;110.05;10.43;;;17.30;99.90;;;;;;5054107;28;20038;-55
2023/10/20 12:17:30;;;;;;;60.20;6.72;;;17.30;99.90;;;;;;5064751;28;20055;-54
2023/10/20 12:19:56;;;;;;;58.13;6.47;;;17.30;99.90;;;;;;5053961;28;20036;-54
2023/10/20 12:22:23;;;;;;;71.18;9.70;;;17.30;99.90;;;;;;5074082;28;20063;-54
2023/10/20 12:24:49;;;;;;;69.45;8.52;;;17.30;99.90;;;;;;5066686;28;20065;-54
2023/10/20 12:27:14;;;;;;;38.05;6.55;;;17.30;99.90;;;;;;5088035;28;20076;-54
2023/10/20 12:29:40;;;;;;;53.55;6.82;;;17.30;99.90;;;;;;5092651;28;20032;-54
2023/10/20 12:32:07;;;;;;;89.53;11.75;;;17.30;99.90;;;;;;5084938;28;20028;-54
2023/10/20 12:34:33;;;;;;;74.03;10.75;;;17.30;99.90;;;;;;5082671;28;20029;-54
2023/10/20 12:37:01;;;;;;;88.80;10.88;;;17.40;99.90;;;;;;5069703;28;20043;-54
2023/10/20 12:39:28;;;;;;;59.15;8.93;;;17.40;99.90;;;;;;5054311;28;20025;-54
2023/10/20 12:41:54;;;;;;;76.20;9.82;;;17.30;99.90;;;;;;5087977;28;20107;-54
2023/10/20 12:44:22;;;;;;;111.50;13.38;;;17.30;99.90;;;;;;5079831;28;20028;-54
2023/10/20 12:46:48;;;;;;;97.60;14.15;;;17.30;99.90;;;;;;5057540;28;20052;-54
2023/10/20 12:49:13;;;;;;;146.98;16.42;;;17.30;99.90;;;;;;5097618;28;20115;-54
2023/10/20 12:51:41;;;;;;;125.88;13.73;;;17.30;99.90;;;;;;5072666;28;20024;-54
2023/10/20 12:54:07;;;;;;;102.90;12.68;;;17.30;99.90;;;;;;5087038;28;20567;-54
2023/10/20 12:56:32;;;;;;;146.60;16.50;;;17.40;99.90;;;;;;5067210;28;20017;-54
2023/10/20 12:58:58;;;;;;;93.95;12.68;;;17.40;99.90;;;;;;5033882;28;20037;-54